createdAt,value
2018-08-03T00:01:19.419Z,10.03
2018-08-03T00:03:50.260Z,10.63
2018-08-03T00:06:21.248Z,11.03
2018-08-03T00:08:52.793Z,10.24
2018-08-03T00:11:23.480Z,10.08
2018-08-03T00:13:54.300Z,9.90
2018-08-03T00:16:25.373Z,10.23
2018-08-03T00:18:56.259Z,10.18
2018-08-03T00:21:27.284Z,10.20
2018-08-03T00:23:59.333Z,9.93
2018-08-03T00:26:29.234Z,10.70
2018-08-03T00:29:00.570Z,10.02
2018-08-03T00:31:31.094Z,10.72
2018-08-03T00:34:01.709Z,10.24
2018-08-03T00:36:32.693Z,11.18
2018-08-03T00:39:04.082Z,10.60
2018-08-03T00:41:34.662Z,10.14
2018-08-03T00:44:06.181Z,10.84
2018-08-03T00:46:36.494Z,10.80
2018-08-03T00:49:07.355Z,11.55
2018-08-03T00:51:38.374Z,10.98
2018-08-03T00:54:09.271Z,10.20
2018-08-03T00:56:40.636Z,10.30
2018-08-03T00:59:11.532Z,10.70
2018-08-03T01:01:42.490Z,10.55
2018-08-03T01:04:13.360Z,10.75
2018-08-03T01:06:44.360Z,10.58
2018-08-03T01:09:15.315Z,10.93
2018-08-03T01:11:46.356Z,10.90
2018-08-03T01:14:17.269Z,11.48
2018-08-03T01:16:48.282Z,11.22
2018-08-03T01:19:18.225Z,10.25
2018-08-03T01:21:49.747Z,10.60
2018-08-03T01:24:20.495Z,9.90
2018-08-03T01:26:51.378Z,11.00
2018-08-03T01:29:22.333Z,10.18
2018-08-03T01:31:53.954Z,11.05
2018-08-03T01:34:24.533Z,11.18
2018-08-03T01:36:55.434Z,10.88
2018-08-03T01:39:26.429Z,10.60
2018-08-03T01:41:57.351Z,11.10
2018-08-03T01:44:28.298Z,10.88
2018-08-03T01:46:59.242Z,11.35
2018-08-03T01:49:30.575Z,12.08
2018-08-03T01:52:01.451Z,10.85
2018-08-03T01:54:32.301Z,11.12
2018-08-03T01:57:03.253Z,11.65
2018-08-03T01:59:34.545Z,11.76
2018-08-03T02:02:05.650Z,11.50
2018-08-03T02:04:36.583Z,12.65
2018-08-03T02:07:06.582Z,11.73
2018-08-03T02:09:37.452Z,11.30
2018-08-03T02:12:08.378Z,11.12
2018-08-03T02:14:39.363Z,10.90
2018-08-03T02:17:10.418Z,12.58
2018-08-03T02:19:41.290Z,10.80
2018-08-03T02:22:12.269Z,11.60
2018-08-03T02:24:43.586Z,11.00
2018-08-03T02:27:14.494Z,10.98
2018-08-03T02:29:45.344Z,10.65
2018-08-03T02:32:16.424Z,11.85
2018-08-03T02:34:47.314Z,11.97
2018-08-03T02:37:18.594Z,11.46
2018-08-03T02:39:49.430Z,11.48
2018-08-03T02:42:20.472Z,11.38
2018-08-03T02:44:51.405Z,11.03
2018-08-03T02:47:22.413Z,11.68
2018-08-03T02:49:53.332Z,11.35
2018-08-03T02:52:24.322Z,12.13
2018-08-03T02:54:56.951Z,12.25
2018-08-03T02:57:26.813Z,12.40
2018-08-03T02:59:57.580Z,11.63
2018-08-03T03:02:28.526Z,11.75
2018-08-03T03:04:59.348Z,13.05
2018-08-03T03:07:30.410Z,12.50
2018-08-03T03:10:00.299Z,12.10
2018-08-03T03:12:31.261Z,12.07
2018-08-03T03:15:02.248Z,11.15
2018-08-03T03:17:33.579Z,12.50
2018-08-03T03:20:04.680Z,12.03
2018-08-03T03:22:35.594Z,12.18
2018-08-03T03:25:06.562Z,12.35
2018-08-03T03:27:37.482Z,12.33
2018-08-03T03:30:09.382Z,13.13
2018-08-03T03:32:39.359Z,13.43
2018-08-03T03:35:10.454Z,12.50
2018-08-03T03:37:42.835Z,12.72
2018-08-03T03:40:12.734Z,13.40
2018-08-03T03:42:43.679Z,13.30
2018-08-03T03:45:14.559Z,13.60
2018-08-03T03:47:45.469Z,13.32
2018-08-03T03:50:16.345Z,12.80
2018-08-03T03:52:48.986Z,13.18
2018-08-03T03:55:18.906Z,12.57
2018-08-03T03:57:49.606Z,13.62
2018-08-03T04:00:20.909Z,12.98
2018-08-03T04:02:51.566Z,14.43
2018-08-03T04:05:22.458Z,12.33
2018-08-03T04:07:53.534Z,13.25
2018-08-03T04:10:24.500Z,13.53
2018-08-03T04:12:55.442Z,14.20
2018-08-03T04:15:27.097Z,13.32
2018-08-03T04:17:57.662Z,14.66
2018-08-03T04:20:28.551Z,13.43
2018-08-03T04:22:59.542Z,13.62
2018-08-03T04:25:30.899Z,14.47
2018-08-03T04:28:01.711Z,13.26
2018-08-03T04:30:32.565Z,14.30
2018-08-03T04:33:03.522Z,13.53
2018-08-03T04:35:34.367Z,13.48
2018-08-03T04:38:05.295Z,13.90
2018-08-03T04:40:36.648Z,14.94
2018-08-03T04:43:07.838Z,14.30
2018-08-03T04:45:38.505Z,13.05
2018-08-03T04:48:09.347Z,14.53
2018-08-03T04:50:41.790Z,13.73
2018-08-03T04:53:11.639Z,13.90
2018-08-03T04:55:42.658Z,14.93
2018-08-03T04:58:13.488Z,14.15
2018-08-03T05:00:44.380Z,14.60
2018-08-03T05:03:15.280Z,14.30
2018-08-03T05:05:46.276Z,14.20
2018-08-03T05:08:17.628Z,14.42
2018-08-03T05:10:48.493Z,14.30
2018-08-03T05:13:19.331Z,14.07
2018-08-03T05:15:50.301Z,14.50
2018-08-03T05:18:21.598Z,15.32
2018-08-03T05:20:52.520Z,13.85
2018-08-03T05:23:23.425Z,16.30
2018-08-03T05:25:54.368Z,14.63
2018-08-03T05:28:25.266Z,14.65
2018-08-03T05:30:56.667Z,15.00
2018-08-03T05:33:27.514Z,14.35
2018-08-03T05:35:58.568Z,15.53
2018-08-03T05:38:29.630Z,15.30
2018-08-03T05:41:00.568Z,15.03
2018-08-03T05:43:31.403Z,14.15
2018-08-03T05:46:02.371Z,14.23
2018-08-03T05:48:33.401Z,14.68
2018-08-03T05:51:05.880Z,13.95
2018-08-03T05:53:35.712Z,12.50
2018-08-03T05:56:06.657Z,13.53
2018-08-03T05:58:37.570Z,13.15
2018-08-03T06:01:08.865Z,11.83
2018-08-03T06:03:39.908Z,13.22
2018-08-03T06:06:10.629Z,13.60
2018-08-03T06:08:41.470Z,13.35
2018-08-03T06:11:12.401Z,13.25
2018-08-03T06:13:43.304Z,12.45
2018-08-03T06:16:14.789Z,12.90
2018-08-03T06:18:45.475Z,12.98
2018-08-03T06:21:16.453Z,12.35
2018-08-03T06:23:48.239Z,12.80
2018-08-03T06:26:18.246Z,12.10
2018-08-03T06:28:49.559Z,12.20
2018-08-03T06:31:20.195Z,12.28
2018-08-03T06:33:50.587Z,11.90
2018-08-03T06:36:21.492Z,12.58
2018-08-03T06:38:52.338Z,11.88
2018-08-03T06:41:23.309Z,12.55
2018-08-03T06:43:54.648Z,12.80
2018-08-03T06:46:25.561Z,12.65
2018-08-03T06:48:56.442Z,12.65
2018-08-03T06:51:27.395Z,13.48
2018-08-03T06:53:58.283Z,12.23
2018-08-03T06:56:29.389Z,11.05
2018-08-03T06:59:00.247Z,11.88
2018-08-03T07:01:31.681Z,12.34
2018-08-03T07:04:02.511Z,11.90
2018-08-03T07:06:33.428Z,11.45
2018-08-03T07:09:05.272Z,13.45
2018-08-03T07:11:35.562Z,12.03
2018-08-03T07:14:07.425Z,11.57
2018-08-03T07:16:37.438Z,13.07
2018-08-03T07:19:08.349Z,12.78
2018-08-03T07:21:39.317Z,12.35
2018-08-03T07:24:11.175Z,13.50
2018-08-03T07:26:41.576Z,14.00
2018-08-03T07:29:12.484Z,13.60
2018-08-03T07:31:42.486Z,12.53
2018-08-03T07:34:14.269Z,13.38
2018-08-03T07:36:45.322Z,13.60
2018-08-03T07:39:16.274Z,13.35
2018-08-03T07:41:47.763Z,12.44
2018-08-03T07:44:18.721Z,13.00
2018-08-03T07:46:49.632Z,12.98
2018-08-03T07:49:19.543Z,13.47
2018-08-03T07:51:51.234Z,12.65
2018-08-03T07:54:21.638Z,13.40
2018-08-03T07:56:52.513Z,12.73
2018-08-03T07:59:23.374Z,13.20
2018-08-03T08:01:54.406Z,13.55
2018-08-03T08:04:25.318Z,13.80
2018-08-03T08:06:56.445Z,13.55
2018-08-03T08:09:27.318Z,13.35
2018-08-03T08:11:58.446Z,13.00
2018-08-03T08:14:29.350Z,13.40
2018-08-03T08:17:00.673Z,14.22
2018-08-03T08:19:31.525Z,13.72
2018-08-03T08:22:02.410Z,12.47
2018-08-03T08:24:33.322Z,13.53
2018-08-03T08:27:05.078Z,13.48
2018-08-03T08:29:35.596Z,14.00
2018-08-03T08:32:07.426Z,12.90
2018-08-03T08:34:37.371Z,13.30
2018-08-03T08:37:08.312Z,12.53
2018-08-03T08:39:39.272Z,11.70
2018-08-03T08:42:10.310Z,11.75
2018-08-03T08:44:41.268Z,11.05
2018-08-03T08:47:12.652Z,11.04
2018-08-03T08:49:43.635Z,11.25
2018-08-03T08:52:14.494Z,11.57
2018-08-03T08:54:45.461Z,11.03
2018-08-03T08:57:16.342Z,9.60
2018-08-03T08:59:47.253Z,8.60
2018-08-03T09:02:18.701Z,9.24
2018-08-03T09:04:49.611Z,9.00
2018-08-03T09:07:20.609Z,8.60
2018-08-03T09:09:51.439Z,8.55
2018-08-03T09:12:22.294Z,9.15
2018-08-03T09:14:53.809Z,8.34
2018-08-03T09:17:24.465Z,8.53
2018-08-03T09:19:55.329Z,8.10
2018-08-03T09:22:26.385Z,8.20
2018-08-03T09:24:57.273Z,8.65
2018-08-03T09:27:28.386Z,8.33
2018-08-03T09:29:59.229Z,7.67
2018-08-03T09:32:30.607Z,8.74
2018-08-03T09:35:01.441Z,8.65
2018-08-03T09:37:32.401Z,9.20
2018-08-03T09:40:03.358Z,9.35
2018-08-03T09:42:34.304Z,8.45
2018-08-03T09:45:05.890Z,9.10
2018-08-03T09:47:36.493Z,8.58
2018-08-03T09:50:07.403Z,8.55
2018-08-03T09:52:38.335Z,8.75
2018-08-03T09:55:09.195Z,8.18
2018-08-03T09:57:40.466Z,8.38
2018-08-03T10:00:16.321Z,7.95
2018-08-03T10:02:47.023Z,8.05
2018-08-03T10:05:16.922Z,8.23
2018-08-03T10:07:46.848Z,8.25
2018-08-03T10:10:18.627Z,7.70
2018-08-03T10:12:48.563Z,7.73
2018-08-03T10:15:19.208Z,7.60
2018-08-03T10:17:49.238Z,7.77
2018-08-03T10:20:19.220Z,8.00
2018-08-03T10:22:50.621Z,7.02
2018-08-03T10:25:21.749Z,6.95
2018-08-03T10:27:52.516Z,6.87
2018-08-03T10:30:23.412Z,7.53
2018-08-03T10:32:54.274Z,6.67
2018-08-03T10:35:26.527Z,6.98
2018-08-03T10:37:56.415Z,7.43
2018-08-03T10:40:27.303Z,6.42
2018-08-03T10:42:58.363Z,6.20
2018-08-03T10:45:29.340Z,7.37
2018-08-03T10:48:01.173Z,7.08
2018-08-03T10:50:31.198Z,7.10
2018-08-03T10:53:02.593Z,6.62
2018-08-03T10:55:33.619Z,6.22
2018-08-03T10:58:04.504Z,6.17
2018-08-03T11:00:35.371Z,6.67
2018-08-03T11:03:06.384Z,6.45
2018-08-03T11:05:38.296Z,6.42
2018-08-03T11:08:08.245Z,7.10
2018-08-03T11:10:39.648Z,6.60
2018-08-03T11:13:10.490Z,6.33
2018-08-03T11:15:41.295Z,6.97
2018-08-03T11:18:12.267Z,6.30
2018-08-03T11:20:43.289Z,6.90
2018-08-03T11:23:14.361Z,6.45
2018-08-03T11:25:45.250Z,6.33
2018-08-03T11:28:16.256Z,6.55
2018-08-03T11:30:47.297Z,6.70
2018-08-03T11:33:18.265Z,6.62
2018-08-03T11:35:49.259Z,6.30
2018-08-03T11:38:20.313Z,6.65
2018-08-03T11:40:51.652Z,6.35
2018-08-03T11:43:22.561Z,6.12
2018-08-03T11:45:53.430Z,6.33
2018-08-03T11:48:24.263Z,6.65
2018-08-03T11:50:55.325Z,6.12
2018-08-03T11:53:26.300Z,6.37
2018-08-03T11:55:57.561Z,6.03
2018-08-03T11:58:28.449Z,5.90
2018-08-03T12:01:00.359Z,6.30
2018-08-03T12:03:30.274Z,6.05
2018-08-03T12:06:01.255Z,6.03
2018-08-03T12:08:32.408Z,6.62
2018-08-03T12:11:03.181Z,5.67
2018-08-03T12:13:34.562Z,6.30
2018-08-03T12:16:05.422Z,6.67
2018-08-03T12:18:36.305Z,6.30
2018-08-03T12:21:07.947Z,6.22
2018-08-03T12:23:38.603Z,6.87
2018-08-03T12:26:09.525Z,6.58
2018-08-03T12:28:40.391Z,6.30
2018-08-03T12:31:11.312Z,7.45
2018-08-03T12:33:42.362Z,6.92
2018-08-03T12:36:13.255Z,6.60
2018-08-03T12:38:44.279Z,6.75
2018-08-03T12:41:15.156Z,6.90
2018-08-03T12:43:46.617Z,7.16
2018-08-03T12:46:17.422Z,6.62
2018-08-03T12:48:48.285Z,7.42
2018-08-03T12:51:19.576Z,7.44
2018-08-03T12:53:50.885Z,6.90
2018-08-03T12:56:21.470Z,7.05
2018-08-03T12:58:52.505Z,7.00
2018-08-03T13:01:23.390Z,6.90
2018-08-03T13:03:54.547Z,7.35
2018-08-03T13:06:25.729Z,6.90
2018-08-03T13:08:56.773Z,7.40
2018-08-03T13:11:27.506Z,6.97
2018-08-03T13:13:58.475Z,7.25
2018-08-03T13:16:30.426Z,6.80
2018-08-03T13:19:00.454Z,7.00
2018-08-03T13:21:37.657Z,6.70
2018-08-03T13:24:07.735Z,6.80
2018-08-03T13:26:37.710Z,7.10
2018-08-03T13:29:07.764Z,6.50
2018-08-03T13:31:37.582Z,6.40
2018-08-03T13:34:07.758Z,7.00
2018-08-03T13:36:37.674Z,6.33
2018-08-03T13:39:10.001Z,7.30
2018-08-03T13:41:40.169Z,7.00
2018-08-03T13:44:10.296Z,6.70
2018-08-03T13:46:41.090Z,6.65
2018-08-03T13:49:11.776Z,6.74
2018-08-03T13:51:42.577Z,6.80
2018-08-03T13:54:13.518Z,6.30
2018-08-03T13:56:44.450Z,5.78
2018-08-03T13:59:15.466Z,6.05
2018-08-03T14:01:56.686Z,5.72
2018-08-03T14:04:26.642Z,5.70
2018-08-03T14:06:56.654Z,5.47
2018-08-03T14:09:26.605Z,6.60
2018-08-03T14:11:56.603Z,5.43
2018-08-03T14:14:26.577Z,5.93
2018-08-03T14:16:56.545Z,5.95
2018-08-03T14:19:26.779Z,5.90
2018-08-03T14:21:56.765Z,5.90
2018-08-03T14:24:27.004Z,5.83
2018-08-03T14:26:57.146Z,6.10
2018-08-03T14:29:28.049Z,5.58
2018-08-03T14:31:58.170Z,5.47
2018-08-03T14:34:28.958Z,6.03
2018-08-03T14:36:59.594Z,5.90
2018-08-03T14:39:30.676Z,5.33
2018-08-03T14:42:01.831Z,5.80
2018-08-03T14:44:32.728Z,5.50
2018-08-03T14:47:04.240Z,6.05
2018-08-03T14:49:36.598Z,6.37
2018-08-03T14:52:07.853Z,6.15
2018-08-03T14:54:38.739Z,6.20
2018-08-03T14:57:09.548Z,6.00
2018-08-03T14:59:40.652Z,5.60
2018-08-03T15:02:10.732Z,5.63
2018-08-03T15:04:40.934Z,6.70
2018-08-03T15:07:11.035Z,6.27
2018-08-03T15:09:42.110Z,6.28
2018-08-03T15:12:13.906Z,5.75
2018-08-03T15:14:43.997Z,6.73
2018-08-03T15:17:14.883Z,7.06
2018-08-03T15:19:46.384Z,6.35
2018-08-03T15:22:16.927Z,6.50
2018-08-03T15:24:48.089Z,5.97
2018-08-03T15:27:19.084Z,6.45
2018-08-03T15:29:49.730Z,5.80
2018-08-03T15:32:20.432Z,6.62
2018-08-03T15:34:51.366Z,5.95
2018-08-03T15:37:22.249Z,6.03
2018-08-03T15:39:53.490Z,6.35
2018-08-03T15:42:24.479Z,6.50
2018-08-03T15:44:56.464Z,6.00
2018-08-03T15:47:26.551Z,6.07
2018-08-03T15:49:57.539Z,6.17
2018-08-03T15:52:28.487Z,6.08
2018-08-03T15:54:59.417Z,5.85
2018-08-03T15:57:30.339Z,6.10
2018-08-03T16:00:01.292Z,5.62
2018-08-03T16:02:32.289Z,6.00
2018-08-03T16:05:03.287Z,5.58
2018-08-03T16:07:34.231Z,5.50
2018-08-03T16:10:06.089Z,5.48
2018-08-03T16:12:36.612Z,5.16
2018-08-03T16:15:07.733Z,5.33
2018-08-03T16:17:38.544Z,5.58
2018-08-03T16:20:09.821Z,5.45
2018-08-03T16:22:40.413Z,5.28
2018-08-03T16:25:11.418Z,5.22
2018-08-03T16:27:42.446Z,5.80
2018-08-03T16:30:13.458Z,5.45
2018-08-03T16:32:44.291Z,5.60
2018-08-03T16:35:15.447Z,5.78
2018-08-03T16:37:46.918Z,5.90
2018-08-03T16:40:17.665Z,4.90
2018-08-03T16:42:48.491Z,5.33
2018-08-03T16:45:19.441Z,5.12
2018-08-03T16:47:50.228Z,5.67
2018-08-03T16:50:21.648Z,5.26
2018-08-03T16:52:52.450Z,5.47
2018-08-03T16:55:23.441Z,5.50
2018-08-03T16:57:54.623Z,5.58
2018-08-03T17:00:25.485Z,5.97
2018-08-03T17:02:56.334Z,5.97
2018-08-03T17:05:27.389Z,5.80
2018-08-03T17:07:58.577Z,5.92
2018-08-03T17:10:29.466Z,6.45
2018-08-03T17:13:00.281Z,6.10
2018-08-03T17:15:31.252Z,5.87
2018-08-03T17:18:02.135Z,6.25
2018-08-03T17:20:33.533Z,6.18
2018-08-03T17:23:04.358Z,6.85
2018-08-03T17:25:35.655Z,6.75
2018-08-03T17:28:06.592Z,6.80
2018-08-03T17:30:37.543Z,6.25
2018-08-03T17:33:08.404Z,6.65
2018-08-03T17:35:39.453Z,7.45
2018-08-03T17:38:10.454Z,7.12
2018-08-03T17:40:41.337Z,6.35
2018-08-03T17:43:12.272Z,6.80
2018-08-03T17:45:43.322Z,6.33
2018-08-03T17:48:14.304Z,6.62
2018-08-03T17:50:45.312Z,6.92
2018-08-03T17:53:16.304Z,6.97
2018-08-03T17:55:47.339Z,6.92
2018-08-03T17:58:18.278Z,6.83
2018-08-03T18:00:49.445Z,7.20
2018-08-03T18:03:21.081Z,7.47
2018-08-03T18:05:51.614Z,7.24
2018-08-03T18:08:22.514Z,7.30
2018-08-03T18:10:53.433Z,7.75
2018-08-03T18:13:24.285Z,7.67
2018-08-03T18:15:55.417Z,7.53
2018-08-03T18:18:26.620Z,7.62
2018-08-03T18:20:57.529Z,7.72
2018-08-03T18:23:28.389Z,7.50
2018-08-03T18:25:59.421Z,7.80
2018-08-03T18:28:30.273Z,7.78
2018-08-03T18:31:01.289Z,8.08
2018-08-03T18:33:34.071Z,8.43
2018-08-03T18:36:03.958Z,8.10
2018-08-03T18:38:34.609Z,10.00
2018-08-03T18:41:05.433Z,9.55
2018-08-03T18:43:36.322Z,8.73
2018-08-03T18:46:07.410Z,7.90
2018-08-03T18:48:38.315Z,8.43
2018-08-03T18:51:09.481Z,8.58
2018-08-03T18:53:40.299Z,8.03
2018-08-03T18:56:11.369Z,7.90
2018-08-03T18:58:42.213Z,8.23
2018-08-03T19:01:13.645Z,7.92
2018-08-03T19:03:44.521Z,8.08
2018-08-03T19:06:15.516Z,8.03
2018-08-03T19:08:46.423Z,8.75
2018-08-03T19:11:17.367Z,7.72
2018-08-03T19:13:48.351Z,8.10
2018-08-03T19:16:19.344Z,8.33
2018-08-03T19:18:50.287Z,8.20
2018-08-03T19:21:21.340Z,9.40
2018-08-03T19:23:52.332Z,11.05
2018-08-03T19:26:23.426Z,12.78
2018-08-03T19:28:54.366Z,13.60
2018-08-03T19:31:25.154Z,12.95
2018-08-03T19:33:55.842Z,11.10
2018-08-03T19:36:26.553Z,11.08
2018-08-03T19:38:57.450Z,10.98
2018-08-03T19:41:28.540Z,10.98
2018-08-03T19:43:59.365Z,10.60
2018-08-03T19:46:30.277Z,10.70
2018-08-03T19:49:01.662Z,10.74
2018-08-03T19:51:32.641Z,11.90
2018-08-03T19:54:03.484Z,12.23
2018-08-03T19:56:35.118Z,15.32
2018-08-03T19:59:05.723Z,17.84
2018-08-03T20:01:36.593Z,17.15
2018-08-03T20:04:07.957Z,14.25
2018-08-03T20:06:39.387Z,10.74
2018-08-03T20:09:12.304Z,11.37
2018-08-03T20:11:42.278Z,9.70
2018-08-03T20:14:12.150Z,9.90
2018-08-03T20:16:42.728Z,10.02
2018-08-03T20:19:13.749Z,9.95
2018-08-03T20:21:44.492Z,9.48
2018-08-03T20:24:15.407Z,10.23
2018-08-03T20:26:46.394Z,10.18
2018-08-03T20:29:17.432Z,10.40
2018-08-03T20:31:48.216Z,9.93
2018-08-03T20:34:18.260Z,10.00
2018-08-03T20:36:49.740Z,10.70
2018-08-03T20:39:20.509Z,10.85
2018-08-03T20:41:52.661Z,10.32
2018-08-03T20:44:22.598Z,11.70
2018-08-03T20:46:53.567Z,11.38
2018-08-03T20:49:24.991Z,11.20
2018-08-03T20:51:55.796Z,11.25
2018-08-03T20:54:26.630Z,10.78
2018-08-03T20:56:57.675Z,10.93
2018-08-03T20:59:28.641Z,10.20
2018-08-03T21:01:59.566Z,10.20
2018-08-03T21:04:30.656Z,9.45
2018-08-03T21:07:01.620Z,9.80
2018-08-03T21:09:32.993Z,9.22
2018-08-03T21:12:03.887Z,9.58
2018-08-03T21:14:34.562Z,9.68
2018-08-03T21:17:05.456Z,9.70
2018-08-03T21:19:36.437Z,9.25
2018-08-03T21:22:07.372Z,10.93
2018-08-03T21:24:38.311Z,10.08
2018-08-03T21:27:09.344Z,9.75
2018-08-03T21:29:40.435Z,10.03
2018-08-03T21:32:11.960Z,9.80
2018-08-03T21:34:42.554Z,9.55
2018-08-03T21:37:13.508Z,9.95
2018-08-03T21:39:44.383Z,9.90
2018-08-03T21:42:15.382Z,9.65
2018-08-03T21:44:46.861Z,11.35
2018-08-03T21:47:17.576Z,10.08
2018-08-03T21:49:48.433Z,9.15
2018-08-03T21:52:19.332Z,10.50
2018-08-03T22:14:49.132Z,11.60
2018-08-03T22:17:19.100Z,12.83
2018-08-03T22:19:48.932Z,11.63
2018-08-03T22:22:18.810Z,12.60
2018-08-03T22:24:48.642Z,11.77
2018-08-03T22:27:18.676Z,11.63
2018-08-03T22:29:48.714Z,12.17
2018-08-03T22:32:18.609Z,11.33
2018-08-03T22:34:48.868Z,12.27
2018-08-03T22:37:19.024Z,11.40
2018-08-03T22:39:48.853Z,11.93
2018-08-03T22:42:18.895Z,12.73
2018-08-03T22:44:48.787Z,11.77
2018-08-03T22:47:19.452Z,12.37
2018-08-03T22:49:49.355Z,11.37
2018-08-03T22:52:19.711Z,11.83
2018-08-03T22:54:49.876Z,12.40
2018-08-03T22:57:19.843Z,11.40
2018-08-03T22:59:49.897Z,12.23
2018-08-03T23:02:20.044Z,12.43
2018-08-03T23:04:49.933Z,12.27
2018-08-03T23:07:19.889Z,12.07
2018-08-03T23:09:49.846Z,11.97
2018-08-03T23:12:19.947Z,11.63
2018-08-03T23:14:49.834Z,12.13
2018-08-03T23:17:19.983Z,11.77
2018-08-03T23:19:49.862Z,11.83
2018-08-03T23:22:19.906Z,12.33
2018-08-03T23:24:49.793Z,11.40
2018-08-03T23:27:19.766Z,11.87
2018-08-03T23:29:49.812Z,12.05
2018-08-03T23:32:19.702Z,12.40
2018-08-03T23:34:49.706Z,12.27
2018-08-03T23:37:20.188Z,12.30
2018-08-03T23:39:50.032Z,11.40
2018-08-03T23:42:20.046Z,11.90
2018-08-03T23:44:49.964Z,11.80
2018-08-03T23:47:19.966Z,12.00
2018-08-03T23:49:50.026Z,12.33
2018-08-03T23:52:19.996Z,12.63
2018-08-03T23:54:49.941Z,12.77
2018-08-03T23:57:19.916Z,12.83
2018-08-03T23:59:49.880Z,13.00
